createdAt,value
2019-02-17T00:00:23.927Z,22.70
2019-02-17T00:02:49.615Z,23.63
2019-02-17T00:05:15.242Z,21.43
2019-02-17T00:07:40.454Z,23.13
2019-02-17T00:10:06.078Z,24.30
2019-02-17T00:12:31.728Z,23.17
2019-02-17T00:14:57.094Z,24.37
2019-02-17T00:17:22.307Z,21.77
2019-02-17T00:19:47.489Z,23.33
2019-02-17T00:22:12.673Z,22.63
2019-02-17T00:24:37.876Z,22.13
2019-02-17T00:27:03.098Z,24.27
2019-02-17T00:29:28.283Z,21.30
2019-02-17T00:31:53.487Z,24.43
2019-02-17T00:34:18.743Z,24.33
2019-02-17T00:36:44.397Z,22.97
2019-02-17T00:39:09.601Z,23.67
2019-02-17T00:41:34.893Z,23.17
2019-02-17T00:44:00.128Z,24.23
2019-02-17T00:46:25.321Z,22.70
2019-02-17T00:48:50.545Z,23.37
2019-02-17T00:51:15.864Z,24.17
2019-02-17T00:53:41.031Z,23.67
2019-02-17T00:56:06.291Z,24.00
2019-02-17T00:58:31.566Z,23.30
2019-02-17T01:00:56.739Z,22.30
2019-02-17T01:03:23.401Z,24.10
2019-02-17T01:05:48.710Z,25.87
2019-02-17T01:08:13.981Z,25.27
2019-02-17T01:10:39.284Z,25.30
2019-02-17T01:13:04.486Z,24.97
2019-02-17T01:15:29.745Z,25.00
2019-02-17T01:17:54.953Z,23.90
2019-02-17T01:20:20.147Z,25.20
2019-02-17T01:22:45.338Z,33.23
2019-02-17T01:25:11.709Z,24.63
2019-02-17T01:27:36.896Z,23.73
2019-02-17T01:30:03.572Z,26.43
2019-02-17T01:32:29.240Z,25.33
2019-02-17T01:34:54.406Z,24.90
2019-02-17T01:37:19.633Z,23.90
2019-02-17T01:39:51.167Z,23.93
2019-02-17T01:42:16.399Z,24.30
2019-02-17T01:44:41.614Z,23.77
2019-02-17T01:47:06.817Z,24.23
2019-02-17T01:49:32.023Z,24.70
2019-02-17T01:51:57.248Z,41.60
2019-02-17T01:54:22.769Z,25.50
2019-02-17T01:56:47.939Z,24.33
2019-02-17T01:59:13.144Z,24.27
2019-02-17T02:01:38.329Z,25.23
2019-02-17T02:04:03.826Z,25.53
2019-02-17T02:06:29.103Z,26.30
2019-02-17T02:08:54.475Z,26.83
2019-02-17T02:11:19.743Z,25.53
2019-02-17T02:13:44.910Z,27.83
2019-02-17T02:16:10.079Z,26.87
2019-02-17T02:18:35.573Z,27.83
2019-02-17T02:21:00.763Z,28.50
2019-02-17T02:23:26.173Z,29.73
2019-02-17T02:25:51.354Z,34.17
2019-02-17T02:28:16.522Z,31.53
2019-02-17T02:30:41.762Z,32.73
2019-02-17T02:33:06.978Z,28.03
2019-02-17T02:35:32.158Z,27.37
2019-02-17T02:37:57.427Z,26.77
2019-02-17T02:40:22.720Z,26.63
2019-02-17T02:42:48.057Z,27.03
2019-02-17T02:45:13.242Z,29.03
2019-02-17T02:47:38.459Z,27.90
2019-02-17T02:50:09.368Z,27.40
2019-02-17T02:52:34.548Z,28.03
2019-02-17T02:54:59.764Z,29.70
2019-02-17T02:57:24.959Z,29.20
2019-02-17T02:59:52.420Z,28.30
2019-02-17T03:02:17.176Z,28.30
2019-02-17T03:04:42.529Z,28.83
2019-02-17T03:07:08.055Z,28.13
2019-02-17T03:09:33.205Z,29.33
2019-02-17T03:11:58.423Z,29.10
2019-02-17T03:14:23.720Z,29.00
2019-02-17T03:16:48.889Z,28.50
2019-02-17T03:19:14.048Z,28.60
2019-02-17T03:21:39.294Z,29.97
2019-02-17T03:24:04.487Z,27.27
2019-02-17T03:26:29.657Z,27.77
2019-02-17T03:28:54.946Z,28.30
2019-02-17T03:31:20.279Z,28.50
2019-02-17T03:33:45.452Z,28.47
2019-02-17T03:36:11.065Z,29.20
2019-02-17T03:38:36.242Z,29.23
2019-02-17T03:41:01.993Z,27.47
2019-02-17T03:43:27.171Z,29.97
2019-02-17T03:45:52.359Z,28.00
2019-02-17T03:48:17.571Z,29.73
2019-02-17T03:50:42.769Z,29.53
2019-02-17T03:53:08.117Z,30.03
2019-02-17T03:55:33.308Z,30.13
2019-02-17T03:57:58.596Z,29.67
2019-02-17T04:00:23.979Z,29.03
2019-02-17T04:02:49.545Z,30.23
2019-02-17T04:05:15.960Z,31.10
2019-02-17T04:07:41.172Z,29.23
2019-02-17T04:10:06.668Z,30.73
2019-02-17T04:12:32.131Z,30.53
2019-02-17T04:14:57.295Z,30.17
2019-02-17T04:17:23.493Z,30.37
2019-02-17T04:19:48.984Z,31.27
2019-02-17T04:22:14.180Z,31.10
2019-02-17T04:24:39.344Z,31.13
2019-02-17T04:27:04.650Z,31.70
2019-02-17T04:29:29.999Z,30.80
2019-02-17T04:31:55.210Z,30.90
2019-02-17T04:34:20.413Z,30.37
2019-02-17T04:36:45.627Z,31.87
2019-02-17T04:39:10.899Z,30.60
2019-02-17T04:41:36.300Z,31.80
2019-02-17T04:44:01.506Z,32.40
2019-02-17T04:46:26.667Z,31.30
2019-02-17T04:48:52.212Z,32.17
2019-02-17T04:51:17.444Z,31.23
2019-02-17T04:53:42.599Z,33.40
2019-02-17T04:56:07.901Z,31.90
2019-02-17T04:58:33.105Z,32.33
2019-02-17T05:00:58.287Z,33.20
2019-02-17T05:03:23.525Z,33.40
2019-02-17T05:05:49.695Z,31.30
2019-02-17T05:08:15.245Z,31.63
2019-02-17T05:10:40.460Z,33.43
2019-02-17T05:13:05.643Z,35.07
2019-02-17T05:15:30.822Z,34.50
2019-02-17T05:17:56.029Z,33.57
2019-02-17T05:20:21.195Z,33.97
2019-02-17T05:22:46.493Z,36.30
2019-02-17T05:25:11.676Z,33.60
2019-02-17T05:27:37.828Z,33.67
2019-02-17T05:30:06.863Z,35.23
2019-02-17T05:32:33.028Z,34.23
2019-02-17T05:34:59.129Z,34.50
2019-02-17T05:37:24.515Z,32.17
2019-02-17T05:39:49.816Z,33.47
2019-02-17T05:42:15.077Z,33.20
2019-02-17T05:44:40.253Z,32.30
2019-02-17T05:47:05.477Z,32.20
2019-02-17T05:49:30.667Z,31.80
2019-02-17T05:51:55.864Z,31.03
2019-02-17T05:54:22.138Z,29.87
2019-02-17T05:56:47.304Z,29.60
2019-02-17T05:59:12.693Z,28.00
2019-02-17T06:01:37.922Z,30.40
2019-02-17T06:04:03.119Z,28.97
2019-02-17T06:06:28.600Z,31.07
2019-02-17T06:08:53.747Z,31.17
2019-02-17T06:11:18.923Z,30.10
2019-02-17T06:13:44.208Z,31.17
2019-02-17T06:16:09.492Z,33.67
2019-02-17T06:18:34.756Z,32.20
2019-02-17T06:20:59.993Z,30.20
2019-02-17T06:23:25.358Z,31.13
2019-02-17T06:25:50.701Z,33.30
2019-02-17T06:28:15.983Z,32.43
2019-02-17T06:30:41.300Z,29.20
2019-02-17T06:33:06.468Z,32.90
2019-02-17T06:35:31.673Z,32.23
2019-02-17T06:37:56.979Z,32.23
2019-02-17T06:40:22.375Z,30.87
2019-02-17T06:42:47.554Z,32.47
2019-02-17T06:45:12.754Z,33.50
2019-02-17T06:47:38.004Z,33.30
2019-02-17T06:50:05.532Z,31.87
2019-02-17T06:52:31.046Z,31.13
2019-02-17T06:55:07.403Z,31.60
2019-02-17T06:57:34.503Z,31.70
2019-02-17T07:00:07.454Z,34.57
2019-02-17T07:02:34.161Z,32.50
2019-02-17T07:05:04.687Z,33.80
2019-02-17T07:07:30.772Z,32.10
2019-02-17T07:09:58.558Z,34.43
2019-02-17T07:12:23.885Z,33.10
2019-02-17T07:14:53.674Z,32.57
2019-02-17T07:17:19.444Z,31.90
2019-02-17T07:19:44.898Z,31.90
2019-02-17T07:22:10.374Z,32.40
2019-02-17T07:24:35.559Z,33.33
2019-02-17T07:27:00.746Z,32.90
2019-02-17T07:29:26.075Z,32.83
2019-02-17T07:31:51.301Z,32.13
2019-02-17T07:34:16.536Z,33.00
2019-02-17T07:36:41.896Z,33.00
2019-02-17T07:39:07.090Z,33.03
2019-02-17T07:41:32.370Z,32.63
2019-02-17T07:43:57.679Z,32.53
2019-02-17T07:46:22.903Z,32.43
2019-02-17T07:48:48.104Z,33.10
2019-02-17T07:51:13.422Z,34.20
2019-02-17T07:53:38.592Z,32.87
2019-02-17T07:56:04.880Z,33.30
2019-02-17T07:58:30.131Z,32.77
2019-02-17T08:00:55.397Z,33.67
2019-02-17T08:03:20.703Z,32.17
2019-02-17T08:05:46.004Z,33.43
2019-02-17T08:08:11.274Z,33.23
2019-02-17T08:10:37.522Z,31.50
2019-02-17T08:13:02.741Z,34.23
2019-02-17T08:15:28.213Z,33.23
2019-02-17T08:17:53.415Z,32.43
2019-02-17T08:20:18.700Z,32.67
2019-02-17T08:22:44.107Z,34.27
2019-02-17T08:25:09.571Z,31.30
2019-02-17T08:27:34.810Z,33.93
2019-02-17T08:30:00.358Z,31.03
2019-02-17T08:32:26.053Z,32.73
2019-02-17T08:34:53.180Z,33.30
2019-02-17T08:37:18.554Z,31.13
2019-02-17T08:39:43.763Z,32.17
2019-02-17T08:42:08.951Z,34.07
2019-02-17T08:44:34.188Z,34.10
2019-02-17T08:46:59.443Z,32.60
2019-02-17T08:49:24.872Z,31.80
2019-02-17T08:51:50.151Z,30.70
2019-02-17T08:54:15.572Z,32.53
2019-02-17T08:56:40.763Z,33.17
2019-02-17T08:59:05.966Z,33.03
2019-02-17T09:01:31.171Z,31.90
2019-02-17T09:03:56.360Z,33.33
2019-02-17T09:06:21.583Z,29.43
2019-02-17T09:08:47.019Z,30.80
2019-02-17T09:11:14.464Z,31.73
2019-02-17T09:13:39.731Z,30.50
2019-02-17T09:16:05.052Z,32.07
2019-02-17T09:18:30.274Z,30.30
2019-02-17T09:20:55.690Z,33.43
2019-02-17T09:23:22.849Z,30.40
2019-02-17T09:25:48.079Z,31.20
2019-02-17T09:28:13.257Z,29.53
2019-02-17T09:30:38.520Z,31.33
2019-02-17T09:33:03.808Z,29.30
2019-02-17T09:35:30.078Z,29.30
2019-02-17T09:37:55.562Z,29.03
2019-02-17T09:40:20.873Z,30.17
2019-02-17T09:42:46.201Z,28.67
2019-02-17T09:45:15.349Z,28.33
2019-02-17T09:47:41.867Z,29.33
2019-02-17T09:50:09.795Z,29.80
2019-02-17T09:52:34.955Z,29.00
2019-02-17T09:55:00.252Z,27.43
2019-02-17T09:57:25.560Z,28.70
2019-02-17T09:59:51.834Z,28.77
2019-02-17T10:02:26.303Z,26.83
2019-02-17T10:04:44.282Z,27.60
2019-02-17T10:07:09.496Z,27.80
2019-02-17T10:09:34.696Z,27.70
2019-02-17T10:12:00.181Z,27.93
2019-02-17T10:14:25.375Z,27.63
2019-02-17T10:16:50.554Z,27.90
2019-02-17T10:19:15.836Z,29.03
2019-02-17T10:21:41.164Z,39.50
2019-02-17T10:24:06.427Z,29.80
2019-02-17T10:26:31.595Z,39.30
2019-02-17T10:28:56.789Z,30.30
2019-02-17T10:31:22.065Z,30.30
2019-02-17T10:33:47.339Z,31.90
2019-02-17T10:36:16.013Z,29.90
2019-02-17T10:38:41.339Z,29.47
2019-02-17T10:41:06.640Z,31.83
2019-02-17T10:43:31.818Z,29.50
2019-02-17T10:45:57.010Z,30.40
2019-02-17T10:48:22.553Z,28.33
2019-02-17T10:50:48.032Z,29.53
2019-02-17T10:53:13.453Z,28.53
2019-02-17T10:55:38.800Z,28.70
2019-02-17T10:58:04.076Z,29.77
2019-02-17T11:00:29.755Z,30.00
2019-02-17T11:02:58.838Z,32.67
2019-02-17T11:05:24.037Z,31.23
2019-02-17T11:07:50.276Z,29.33
2019-02-17T11:10:15.990Z,28.37
2019-02-17T11:12:41.300Z,27.33
2019-02-17T11:15:15.644Z,28.37
2019-02-17T11:17:40.901Z,28.67
2019-02-17T11:20:07.176Z,27.83
2019-02-17T11:22:32.526Z,28.87
2019-02-17T11:24:57.893Z,30.37
2019-02-17T11:27:24.137Z,28.67
2019-02-17T11:29:49.371Z,28.23
2019-02-17T11:32:14.677Z,28.60
2019-02-17T11:34:39.931Z,29.33
2019-02-17T11:37:05.209Z,27.10
2019-02-17T11:39:30.419Z,30.37
2019-02-17T11:41:55.752Z,29.30
2019-02-17T11:44:21.031Z,26.57
2019-02-17T11:46:46.359Z,28.60
2019-02-17T11:49:11.651Z,28.10
2019-02-17T11:51:36.966Z,28.80
2019-02-17T11:54:02.168Z,28.13
2019-02-17T11:56:27.360Z,28.60
2019-02-17T11:58:52.923Z,28.97
2019-02-17T12:01:18.221Z,29.23
2019-02-17T12:03:43.457Z,27.57
2019-02-17T12:06:08.705Z,30.10
2019-02-17T12:08:33.860Z,27.20
2019-02-17T12:10:59.409Z,28.47
2019-02-17T12:13:24.695Z,27.23
2019-02-17T12:15:49.919Z,28.17
2019-02-17T12:18:15.231Z,26.43
2019-02-17T12:20:59.137Z,28.40
2019-02-17T12:23:29.043Z,27.97
2019-02-17T12:25:56.230Z,25.60
2019-02-17T12:28:23.334Z,27.77
2019-02-17T12:30:50.394Z,27.40
2019-02-17T12:33:19.208Z,27.60
2019-02-17T12:35:42.760Z,27.33
2019-02-17T12:38:07.980Z,28.03
2019-02-17T12:40:33.188Z,27.47
2019-02-17T12:42:58.397Z,26.63
2019-02-17T12:45:23.712Z,26.00
2019-02-17T12:47:57.426Z,26.13
2019-02-17T12:50:16.070Z,26.00
2019-02-17T12:52:47.154Z,27.17
2019-02-17T12:55:08.444Z,26.90
2019-02-17T12:57:33.859Z,27.00
2019-02-17T13:00:02.520Z,27.20
2019-02-17T13:02:38.755Z,27.17
2019-02-17T13:05:06.000Z,26.10
2019-02-17T13:07:32.175Z,26.57
2019-02-17T13:09:57.331Z,28.13
2019-02-17T13:12:23.655Z,25.90
2019-02-17T13:14:48.960Z,27.60
2019-02-17T13:17:14.156Z,26.70
2019-02-17T13:19:41.326Z,27.10
2019-02-17T13:22:06.836Z,27.50
2019-02-17T13:24:32.115Z,28.77
2019-02-17T13:26:57.529Z,26.43
2019-02-17T13:29:22.895Z,26.33
2019-02-17T13:31:48.094Z,23.83
2019-02-17T13:34:13.338Z,26.23
2019-02-17T13:36:38.640Z,27.53
2019-02-17T13:39:04.402Z,26.30
2019-02-17T13:41:29.554Z,27.10
2019-02-17T13:43:55.995Z,28.50
2019-02-17T13:46:21.292Z,25.80
2019-02-17T13:48:46.471Z,25.50
2019-02-17T13:51:11.713Z,24.13
2019-02-17T13:53:36.982Z,23.40
2019-02-17T13:56:02.272Z,25.30
2019-02-17T13:58:27.641Z,24.67
2019-02-17T14:00:52.905Z,24.77
2019-02-17T14:03:19.075Z,24.70
2019-02-17T14:05:44.275Z,25.23
2019-02-17T14:08:09.487Z,26.00
2019-02-17T14:10:35.746Z,25.70
2019-02-17T14:13:01.059Z,27.00
2019-02-17T14:15:26.255Z,24.33
2019-02-17T14:17:51.569Z,24.70
2019-02-17T14:20:16.753Z,25.40
2019-02-17T14:22:41.954Z,26.03
2019-02-17T14:25:10.866Z,25.87
2019-02-17T14:27:35.637Z,25.40
2019-02-17T14:30:01.096Z,25.50
2019-02-17T14:32:26.488Z,24.03
2019-02-17T14:34:51.707Z,23.80
2019-02-17T14:37:16.896Z,23.20
2019-02-17T14:39:42.943Z,24.53
2019-02-17T14:42:08.363Z,24.90
2019-02-17T14:44:33.549Z,23.70
2019-02-17T14:46:58.745Z,23.00
2019-02-17T14:49:23.933Z,23.07
2019-02-17T14:51:49.101Z,23.30
2019-02-17T14:54:14.580Z,23.07
2019-02-17T14:56:39.768Z,21.37
2019-02-17T14:59:04.957Z,22.87
2019-02-17T15:01:31.233Z,23.00
2019-02-17T15:03:56.433Z,22.70
2019-02-17T15:06:21.703Z,22.70
2019-02-17T15:08:46.995Z,22.07
2019-02-17T15:11:12.191Z,24.40
2019-02-17T15:13:37.384Z,23.43
2019-02-17T15:16:02.613Z,22.67
2019-02-17T15:18:27.931Z,21.50
2019-02-17T15:20:53.272Z,22.77
2019-02-17T15:23:18.541Z,22.37
2019-02-17T15:25:43.922Z,19.83
2019-02-17T15:28:09.367Z,21.03
2019-02-17T15:30:34.736Z,19.87
2019-02-17T15:33:04.052Z,20.27
2019-02-17T15:35:27.087Z,20.20
2019-02-17T15:37:53.361Z,20.30
2019-02-17T15:40:18.619Z,20.67
2019-02-17T15:42:45.255Z,21.30
2019-02-17T15:45:13.153Z,18.73
2019-02-17T15:47:39.371Z,18.50
2019-02-17T15:50:07.523Z,18.97
2019-02-17T15:52:32.754Z,19.90
2019-02-17T15:54:58.016Z,18.70
2019-02-17T15:57:23.503Z,21.37
2019-02-17T15:59:48.697Z,19.23
2019-02-17T16:02:13.863Z,19.10
2019-02-17T16:04:39.023Z,19.00
2019-02-17T16:07:04.183Z,19.13
2019-02-17T16:09:29.392Z,17.97
2019-02-17T16:11:54.563Z,20.87
2019-02-17T16:14:19.828Z,19.17
2019-02-17T16:16:45.139Z,17.40
2019-02-17T16:19:10.768Z,19.80
2019-02-17T16:21:36.068Z,19.40
2019-02-17T16:24:01.263Z,19.90
2019-02-17T16:26:26.426Z,20.40
2019-02-17T16:28:51.586Z,19.10
2019-02-17T16:31:16.841Z,19.13
2019-02-17T16:33:42.057Z,19.37
2019-02-17T16:36:07.386Z,20.37
2019-02-17T16:38:34.839Z,19.87
2019-02-17T16:41:00.060Z,20.17
2019-02-17T16:43:25.268Z,20.80
2019-02-17T16:45:50.624Z,20.20
2019-02-17T16:48:15.827Z,20.37
2019-02-17T16:50:42.966Z,18.93
2019-02-17T16:53:08.219Z,20.27
2019-02-17T16:55:33.459Z,19.30
2019-02-17T16:57:58.857Z,20.07
2019-02-17T17:00:24.751Z,19.87
2019-02-17T17:02:53.628Z,20.17
2019-02-17T17:05:19.103Z,20.07
2019-02-17T17:07:48.304Z,20.33
2019-02-17T17:10:13.505Z,20.87
2019-02-17T17:12:39.036Z,20.70
2019-02-17T17:15:05.584Z,21.40
2019-02-17T17:17:31.726Z,20.97
2019-02-17T17:20:00.271Z,21.90
2019-02-17T17:22:27.221Z,22.03
2019-02-17T17:24:52.435Z,22.87
2019-02-17T17:27:17.596Z,22.50
2019-02-17T17:29:42.756Z,21.00
2019-02-17T17:32:07.954Z,23.03
2019-02-17T17:34:34.344Z,21.17
2019-02-17T17:37:00.707Z,22.93
2019-02-17T17:39:26.000Z,22.93
2019-02-17T17:41:51.220Z,22.33
2019-02-17T17:44:16.419Z,23.70
2019-02-17T17:46:41.627Z,22.90
2019-02-17T17:49:06.815Z,24.03
2019-02-17T17:51:33.235Z,22.73
2019-02-17T17:53:58.394Z,23.20
2019-02-17T17:56:23.553Z,23.77
2019-02-17T17:58:48.856Z,24.20
2019-02-17T18:01:14.042Z,23.30
2019-02-17T18:03:39.195Z,24.80
2019-02-17T18:06:04.412Z,24.30
2019-02-17T18:08:29.854Z,23.53
2019-02-17T18:10:55.032Z,27.10
2019-02-17T18:13:21.946Z,25.53
2019-02-17T18:15:47.267Z,25.93
2019-02-17T18:18:12.462Z,24.17
2019-02-17T18:20:37.726Z,26.13
2019-02-17T18:23:03.009Z,25.03
2019-02-17T18:25:28.159Z,26.37
2019-02-17T18:27:53.323Z,26.87
2019-02-17T18:30:19.315Z,27.03
2019-02-17T18:32:44.533Z,25.53
2019-02-17T18:35:18.758Z,26.40
2019-02-17T18:37:36.893Z,25.00
2019-02-17T18:40:04.548Z,25.57
2019-02-17T18:42:31.079Z,27.03
2019-02-17T18:44:56.315Z,26.73
2019-02-17T18:47:21.543Z,25.80
2019-02-17T18:49:46.730Z,26.27
2019-02-17T18:52:12.920Z,25.90
2019-02-17T18:54:38.069Z,27.80
2019-02-17T18:57:08.240Z,28.07
2019-02-17T18:59:31.047Z,26.17
2019-02-17T19:01:56.200Z,25.37
2019-02-17T19:04:21.356Z,25.50
2019-02-17T19:06:58.402Z,26.63
2019-02-17T19:09:23.603Z,26.93
2019-02-17T19:11:48.777Z,25.53
2019-02-17T19:14:14.130Z,24.37
2019-02-17T19:16:39.271Z,25.20
2019-02-17T19:19:04.611Z,25.37
2019-02-17T19:21:29.825Z,23.40
2019-02-17T19:23:55.988Z,24.57
2019-02-17T19:26:21.159Z,25.00
2019-02-17T19:28:47.147Z,25.40
2019-02-17T19:31:12.313Z,24.60
2019-02-17T19:33:37.799Z,26.17
2019-02-17T19:36:03.335Z,25.37
2019-02-17T19:38:28.493Z,26.13
2019-02-17T19:40:53.751Z,23.27
2019-02-17T19:43:21.309Z,25.03
2019-02-17T19:45:46.612Z,26.40
2019-02-17T19:48:11.807Z,25.57
2019-02-17T19:50:39.351Z,26.97
2019-02-17T19:53:04.775Z,26.13
2019-02-17T19:55:29.960Z,26.80
2019-02-17T19:57:55.730Z,24.57
2019-02-17T20:00:22.039Z,27.07
2019-02-17T20:02:58.387Z,29.50
2019-02-17T20:05:25.509Z,28.43
2019-02-17T20:07:52.824Z,26.83
2019-02-17T20:10:21.827Z,25.67
2019-02-17T20:12:52.793Z,25.67
2019-02-17T20:15:19.870Z,25.87
2019-02-17T20:17:45.158Z,25.47
2019-02-17T20:20:13.657Z,27.23
2019-02-17T20:22:40.300Z,25.00
2019-02-17T20:25:07.168Z,25.33
2019-02-17T20:27:32.448Z,24.87
2019-02-17T20:29:57.667Z,26.20
2019-02-17T20:32:23.026Z,25.77
2019-02-17T20:34:49.567Z,25.67
2019-02-17T20:37:14.921Z,27.70
2019-02-17T20:39:41.328Z,26.20
2019-02-17T20:42:08.381Z,26.43
2019-02-17T20:44:33.897Z,25.67
2019-02-17T20:46:59.219Z,27.47
2019-02-17T20:49:24.517Z,25.30
2019-02-17T20:51:50.292Z,26.10
2019-02-17T20:54:15.510Z,26.67
2019-02-17T20:56:40.726Z,27.90
2019-02-17T20:59:05.991Z,30.77
2019-02-17T21:01:33.120Z,26.67
2019-02-17T21:03:58.347Z,26.17
2019-02-17T21:06:23.569Z,29.30
2019-02-17T21:08:50.147Z,26.53
2019-02-17T21:11:15.447Z,27.77
2019-02-17T21:13:40.975Z,27.00
2019-02-17T21:16:07.249Z,27.93
2019-02-17T21:18:33.092Z,27.70
2019-02-17T21:20:58.577Z,28.70
2019-02-17T21:23:23.931Z,28.03
2019-02-17T21:25:49.124Z,28.77
2019-02-17T21:28:14.429Z,27.50
2019-02-17T21:30:39.764Z,26.50
2019-02-17T21:33:04.951Z,28.83
2019-02-17T21:35:30.171Z,30.87
2019-02-17T21:37:55.519Z,27.40
2019-02-17T21:40:21.116Z,25.20
2019-02-17T21:42:46.608Z,28.30
2019-02-17T21:45:13.354Z,27.33
2019-02-17T21:47:39.254Z,28.13
2019-02-17T21:50:07.801Z,26.20
2019-02-17T21:52:32.942Z,29.40
2019-02-17T21:54:58.123Z,26.43
2019-02-17T21:57:23.944Z,24.73
2019-02-17T21:59:49.221Z,27.43
2019-02-17T22:02:14.495Z,27.33
2019-02-17T22:04:39.696Z,24.03
2019-02-17T22:07:05.089Z,27.63
2019-02-17T22:09:30.621Z,26.40
2019-02-17T22:11:56.020Z,27.80
2019-02-17T22:14:21.530Z,25.90
2019-02-17T22:16:46.956Z,25.77
2019-02-17T22:19:12.943Z,26.00
2019-02-17T22:21:38.125Z,27.83
2019-02-17T22:24:03.587Z,27.47
2019-02-17T22:26:28.955Z,25.53
2019-02-17T22:28:54.411Z,25.40
2019-02-17T22:31:23.670Z,25.47
2019-02-17T22:33:49.093Z,25.40
2019-02-17T22:36:15.162Z,26.57
2019-02-17T22:38:40.723Z,26.83
2019-02-17T22:41:06.626Z,25.80
2019-02-17T22:43:31.943Z,25.10
2019-02-17T22:45:57.117Z,25.47
2019-02-17T22:48:25.621Z,28.67
2019-02-17T22:50:51.465Z,23.90
2019-02-17T22:53:17.221Z,24.53
2019-02-17T22:55:46.708Z,25.57
2019-02-17T22:58:12.034Z,25.30
2019-02-17T23:00:39.525Z,25.03
2019-02-17T23:03:05.873Z,24.63
2019-02-17T23:05:33.694Z,25.37
2019-02-17T23:07:59.609Z,26.20
2019-02-17T23:10:25.250Z,26.70
2019-02-17T23:12:50.400Z,26.23
2019-02-17T23:15:15.639Z,26.70
2019-02-17T23:17:40.835Z,28.23
2019-02-17T23:20:09.853Z,26.63
2019-02-17T23:22:35.122Z,26.57
2019-02-17T23:25:00.496Z,25.47
2019-02-17T23:27:25.675Z,24.70
2019-02-17T23:29:50.868Z,25.07
2019-02-17T23:32:16.218Z,27.23
2019-02-17T23:34:41.366Z,26.70
2019-02-17T23:37:06.527Z,28.33
2019-02-17T23:39:34.742Z,27.10
2019-02-17T23:41:59.994Z,26.20
2019-02-17T23:44:25.191Z,26.70
2019-02-17T23:46:50.483Z,28.40
2019-02-17T23:49:15.877Z,25.10
2019-02-17T23:51:41.199Z,24.33
2019-02-17T23:54:06.434Z,25.40
2019-02-17T23:56:31.748Z,25.90
2019-02-17T23:58:57.375Z,24.27
